createdAt,value
2023-03-26T00:00:01.529Z,7.8
2023-03-26T00:01:01.129Z,7.8
2023-03-26T00:02:01.741Z,7.8
2023-03-26T00:03:01.381Z,7.9
2023-03-26T00:04:01.942Z,7.8
2023-03-26T00:05:01.532Z,7.8
2023-03-26T00:06:01.166Z,7.8
2023-03-26T00:07:01.692Z,7.9
2023-03-26T00:08:01.292Z,7.9
2023-03-26T00:09:01.897Z,7.9
2023-03-26T00:10:01.521Z,7.9
2023-03-26T00:11:01.296Z,7.9
2023-03-26T00:12:01.684Z,7.9
2023-03-26T00:13:01.274Z,7.9
2023-03-26T00:14:01.848Z,8
2023-03-26T00:15:01.452Z,7.9
2023-03-26T00:16:01.012Z,7.9
2023-03-26T00:17:01.603Z,7.9
2023-03-26T00:18:01.229Z,7.9
2023-03-26T00:19:01.782Z,8
2023-03-26T00:20:01.378Z,7.9
2023-03-26T00:21:01.959Z,8
2023-03-26T00:22:01.610Z,8
2023-03-26T00:23:01.217Z,8
2023-03-26T00:24:01.763Z,8
2023-03-26T00:25:01.372Z,8
2023-03-26T00:26:01.926Z,8
2023-03-26T00:27:01.589Z,8
2023-03-26T00:28:01.187Z,8
2023-03-26T00:29:01.744Z,8
2023-03-26T00:30:01.346Z,8.1
2023-03-26T00:31:01.932Z,8
2023-03-26T00:32:01.545Z,8.1
2023-03-26T00:33:01.162Z,8.1
2023-03-26T00:34:01.721Z,8.1
2023-03-26T00:35:01.351Z,8.1
2023-03-26T00:36:03.242Z,8.1
2023-03-26T00:37:01.452Z,8.1
2023-03-26T00:38:01.072Z,8.1
2023-03-26T00:39:01.627Z,8.1
2023-03-26T00:40:01.314Z,8.2
2023-03-26T00:41:01.800Z,8.1
2023-03-26T00:42:01.392Z,8.1
2023-03-26T00:43:01.962Z,8.1
2023-03-26T00:44:01.577Z,8.1
2023-03-26T00:45:01.170Z,8.1
2023-03-26T00:46:01.812Z,8.1
2023-03-26T00:47:01.508Z,8.1
2023-03-26T00:48:02.650Z,8.2
2023-03-26T00:49:01.308Z,8
2023-03-26T00:50:01.930Z,8.1
2023-03-26T00:51:01.534Z,8.1
2023-03-26T00:52:01.134Z,8.1
2023-03-26T00:53:01.725Z,8.1
2023-03-26T00:54:01.348Z,8.1
2023-03-26T00:55:01.912Z,8.1
2023-03-26T00:56:01.502Z,8.1
2023-03-26T00:57:01.123Z,8
2023-03-26T00:58:01.685Z,8
2023-03-26T00:59:01.289Z,8
2023-03-26T01:00:02.062Z,8
2023-03-26T01:01:01.556Z,8
2023-03-26T01:02:01.160Z,8
2023-03-26T01:03:01.788Z,8
2023-03-26T01:04:08.566Z,7.9
2023-03-26T01:05:01.904Z,8
2023-03-26T01:06:01.505Z,8
2023-03-26T01:07:01.112Z,8
2023-03-26T01:08:01.666Z,8
2023-03-26T01:09:01.267Z,7.9
2023-03-26T01:10:01.872Z,7.9
2023-03-26T01:11:01.467Z,8
2023-03-26T01:12:01.070Z,8
2023-03-26T01:13:01.648Z,8
2023-03-26T01:14:01.241Z,8
2023-03-26T01:15:01.860Z,8
2023-03-26T01:16:01.486Z,8
2023-03-26T01:17:01.037Z,8
2023-03-26T01:18:01.612Z,8.1
2023-03-26T01:19:01.230Z,8.1
2023-03-26T01:20:01.834Z,8
2023-03-26T01:21:01.424Z,8
2023-03-26T01:22:01.012Z,8.1
2023-03-26T01:23:01.627Z,8.2
2023-03-26T01:24:01.219Z,8.2
2023-03-26T01:25:01.812Z,8.2
2023-03-26T01:26:01.433Z,8.2
2023-03-26T01:27:00.993Z,8.2
2023-03-26T01:28:01.577Z,8.1
2023-03-26T01:29:01.165Z,8.2
2023-03-26T01:30:01.764Z,8.3
2023-03-26T01:31:01.379Z,8.2
2023-03-26T01:32:01.943Z,8.2
2023-03-26T01:33:01.608Z,8.2
2023-03-26T01:34:01.166Z,8.2
2023-03-26T01:35:01.754Z,8.2
2023-03-26T01:36:01.358Z,8.2
2023-03-26T01:37:01.929Z,8.2
2023-03-26T01:38:01.544Z,8.2
2023-03-26T01:39:01.140Z,8.2
2023-03-26T01:40:01.705Z,8.2
2023-03-26T01:41:01.321Z,8.2
2023-03-26T01:42:01.918Z,8.2
2023-03-26T01:43:01.506Z,8.2
2023-03-26T01:44:01.114Z,8.2
2023-03-26T01:45:01.681Z,8.1
2023-03-26T01:46:01.288Z,8.2
2023-03-26T01:47:01.841Z,8.1
2023-03-26T01:48:01.584Z,8.2
2023-03-26T01:49:01.020Z,8.1
2023-03-26T01:50:01.580Z,8.2
2023-03-26T01:51:01.186Z,8.1
2023-03-26T01:52:01.751Z,8.1
2023-03-26T01:53:01.346Z,8.1
2023-03-26T01:54:01.953Z,8.2
2023-03-26T01:55:01.547Z,8.1
2023-03-26T01:56:01.168Z,8.1
2023-03-26T01:57:01.758Z,8.1
2023-03-26T01:58:01.387Z,8.2
2023-03-26T01:59:01.941Z,8.2
2023-03-26T02:00:01.551Z,8.1
2023-03-26T02:01:01.175Z,8.1
2023-03-26T02:02:01.797Z,8.1
2023-03-26T02:03:01.450Z,8.1
2023-03-26T02:04:00.977Z,8.1
2023-03-26T02:05:01.623Z,8.1
2023-03-26T02:06:01.205Z,8
2023-03-26T02:07:01.793Z,8.1
2023-03-26T02:08:01.388Z,8
2023-03-26T02:09:01.955Z,8
2023-03-26T02:10:01.587Z,8
2023-03-26T02:11:01.199Z,8
2023-03-26T02:12:01.761Z,8
2023-03-26T02:13:01.355Z,8
2023-03-26T02:14:01.964Z,8
2023-03-26T02:15:01.571Z,8
2023-03-26T02:16:01.206Z,8
2023-03-26T02:17:01.752Z,8
2023-03-26T02:18:01.370Z,7.9
2023-03-26T02:19:01.917Z,7.9
2023-03-26T02:20:01.507Z,7.9
2023-03-26T02:21:01.113Z,7.8
2023-03-26T02:22:01.689Z,7.9
2023-03-26T02:23:01.278Z,7.8
2023-03-26T02:24:01.862Z,7.8
2023-03-26T02:25:01.574Z,7.8
2023-03-26T02:26:01.033Z,7.9
2023-03-26T02:27:01.634Z,7.9
2023-03-26T02:28:01.225Z,7.9
2023-03-26T02:29:01.816Z,7.8
2023-03-26T02:30:01.449Z,7.8
2023-03-26T02:31:01.007Z,7.8
2023-03-26T02:32:01.631Z,7.8
2023-03-26T02:33:01.254Z,7.8
2023-03-26T02:34:01.820Z,7.7
2023-03-26T02:35:01.424Z,7.8
2023-03-26T02:36:01.044Z,7.7
2023-03-26T02:37:01.591Z,7.7
2023-03-26T02:38:01.196Z,7.7
2023-03-26T02:39:01.764Z,7.7
2023-03-26T02:40:01.363Z,7.7
2023-03-26T02:41:01.938Z,7.7
2023-03-26T02:42:01.551Z,7.6
2023-03-26T02:43:01.151Z,7.6
2023-03-26T02:44:01.728Z,7.6
2023-03-26T02:45:01.323Z,7.6
2023-03-26T02:46:01.965Z,7.6
2023-03-26T02:47:01.601Z,7.6
2023-03-26T02:48:01.290Z,7.6
2023-03-26T02:49:01.743Z,7.6
2023-03-26T02:50:01.381Z,7.6
2023-03-26T02:51:01.906Z,7.6
2023-03-26T02:52:01.505Z,7.6
2023-03-26T02:53:01.129Z,7.6
2023-03-26T02:54:01.695Z,7.6
2023-03-26T02:55:01.313Z,7.6
2023-03-26T02:56:01.861Z,7.6
2023-03-26T02:57:01.528Z,7.7
2023-03-26T02:58:01.060Z,7.7
2023-03-26T02:59:01.623Z,7.7
2023-03-26T03:00:01.223Z,7.7
2023-03-26T03:01:01.829Z,7.7
2023-03-26T03:02:01.480Z,7.7
2023-03-26T03:03:01.079Z,7.7
2023-03-26T03:04:01.601Z,7.7
2023-03-26T03:05:01.248Z,7.7
2023-03-26T03:06:01.812Z,7.8
2023-03-26T03:07:01.400Z,7.8
2023-03-26T03:08:01.001Z,7.8
2023-03-26T03:09:01.561Z,7.8
2023-03-26T03:10:01.154Z,7.8
2023-03-26T03:11:01.725Z,7.8
2023-03-26T03:12:01.365Z,7.8
2023-03-26T03:13:01.956Z,7.8
2023-03-26T03:14:01.560Z,7.7
2023-03-26T03:15:01.163Z,7.8
2023-03-26T03:16:01.728Z,7.7
2023-03-26T03:17:01.372Z,7.7
2023-03-26T03:18:01.949Z,7.7
2023-03-26T03:19:01.606Z,7.8
2023-03-26T03:20:01.125Z,7.8
2023-03-26T03:21:01.697Z,7.8
2023-03-26T03:22:01.286Z,7.8
2023-03-26T03:23:01.883Z,7.7
2023-03-26T03:24:01.491Z,7.7
2023-03-26T03:25:01.065Z,7.6
2023-03-26T03:26:01.644Z,7.7
2023-03-26T03:27:01.238Z,7.7
2023-03-26T03:28:01.808Z,7.7
2023-03-26T03:29:01.415Z,7.7
2023-03-26T03:30:01.989Z,7.6
2023-03-26T03:31:01.628Z,7.5
2023-03-26T03:32:01.197Z,7.4
2023-03-26T03:33:01.814Z,7.4
2023-03-26T03:34:01.436Z,7.3
2023-03-26T03:35:01.035Z,7.3
2023-03-26T03:36:01.618Z,7.3
2023-03-26T03:37:01.240Z,7.3
2023-03-26T03:38:01.807Z,7.3
2023-03-26T03:39:01.395Z,7.3
2023-03-26T03:40:00.988Z,7.2
2023-03-26T03:41:01.563Z,7.2
2023-03-26T03:42:01.202Z,7.2
2023-03-26T03:43:01.794Z,7.1
2023-03-26T03:44:01.387Z,7.1
2023-03-26T03:45:00.990Z,7.1
2023-03-26T03:46:01.549Z,7.1
2023-03-26T03:47:01.159Z,7.1
2023-03-26T03:48:01.772Z,7.1
2023-03-26T03:49:01.485Z,7.1
2023-03-26T03:50:01.017Z,7
2023-03-26T03:51:01.543Z,7.1
2023-03-26T03:52:01.138Z,7
2023-03-26T03:53:01.706Z,7
2023-03-26T03:54:01.305Z,7
2023-03-26T03:55:01.947Z,7
2023-03-26T03:56:01.562Z,6.9
2023-03-26T03:57:01.147Z,6.9
2023-03-26T03:58:01.718Z,7
2023-03-26T03:59:01.317Z,6.9
2023-03-26T04:00:02.238Z,6.9
2023-03-26T04:01:01.399Z,6.9
2023-03-26T04:02:01.006Z,7
2023-03-26T04:03:01.677Z,7
2023-03-26T04:04:01.360Z,7
2023-03-26T04:05:01.841Z,7
2023-03-26T04:06:01.497Z,7.1
2023-03-26T04:07:01.014Z,7
2023-03-26T04:08:01.581Z,7
2023-03-26T04:09:01.181Z,6.9
2023-03-26T04:10:01.776Z,6.9
2023-03-26T04:11:01.409Z,6.9
2023-03-26T04:12:01.004Z,7
2023-03-26T04:13:01.570Z,6.9
2023-03-26T04:14:01.158Z,6.9
2023-03-26T04:15:01.738Z,6.9
2023-03-26T04:16:01.361Z,6.9
2023-03-26T04:17:01.917Z,6.9
2023-03-26T04:18:01.573Z,6.9
2023-03-26T04:19:01.161Z,7
2023-03-26T04:20:01.744Z,7
2023-03-26T04:21:01.330Z,7
2023-03-26T04:22:01.930Z,7
2023-03-26T04:23:01.539Z,7
2023-03-26T04:24:01.128Z,7.1
2023-03-26T04:25:01.707Z,7.1
2023-03-26T04:26:01.296Z,7
2023-03-26T04:27:01.868Z,7.1
2023-03-26T04:28:01.479Z,7
2023-03-26T04:29:01.065Z,7.1
2023-03-26T04:30:01.657Z,7.1
2023-03-26T04:31:01.391Z,7.1
2023-03-26T04:32:01.840Z,7.1
2023-03-26T04:33:01.482Z,7.2
2023-03-26T04:34:01.019Z,7.1
2023-03-26T04:35:01.602Z,7.2
2023-03-26T04:36:01.226Z,7.2
2023-03-26T04:37:01.770Z,7.1
2023-03-26T04:38:01.405Z,7.1
2023-03-26T04:39:01.953Z,7.1
2023-03-26T04:40:01.545Z,7.1
2023-03-26T04:41:02.632Z,7
2023-03-26T04:42:01.694Z,7
2023-03-26T04:43:01.303Z,7
2023-03-26T04:44:01.992Z,7
2023-03-26T04:45:01.751Z,7
2023-03-26T04:46:01.130Z,7
2023-03-26T04:47:01.743Z,7
2023-03-26T04:48:01.367Z,7
2023-03-26T04:49:01.956Z,7
2023-03-26T04:50:01.620Z,6.9
2023-03-26T04:51:01.169Z,6.9
2023-03-26T04:52:01.733Z,6.9
2023-03-26T04:53:01.327Z,6.9
2023-03-26T04:54:01.936Z,6.9
2023-03-26T04:55:01.525Z,7
2023-03-26T04:56:01.146Z,6.9
2023-03-26T04:57:01.733Z,6.9
2023-03-26T04:58:01.337Z,7
2023-03-26T04:59:01.901Z,6.9
2023-03-26T05:00:01.490Z,6.9
2023-03-26T05:01:01.225Z,6.9
2023-03-26T05:02:01.638Z,6.8
2023-03-26T05:03:01.237Z,6.9
2023-03-26T05:04:01.825Z,6.9
2023-03-26T05:05:01.445Z,6.8
2023-03-26T05:06:01.036Z,6.9
2023-03-26T05:07:01.607Z,6.9
2023-03-26T05:08:01.200Z,6.9
2023-03-26T05:09:01.803Z,6.8
2023-03-26T05:10:01.424Z,6.8
2023-03-26T05:11:00.998Z,6.8
2023-03-26T05:12:01.565Z,6.8
2023-03-26T05:13:01.153Z,6.8
2023-03-26T05:14:01.756Z,6.8
2023-03-26T05:15:01.373Z,6.9
2023-03-26T05:16:01.959Z,6.9
2023-03-26T05:17:01.666Z,6.9
2023-03-26T05:18:01.212Z,6.9
2023-03-26T05:19:01.797Z,7
2023-03-26T05:20:01.390Z,6.9
2023-03-26T05:21:00.975Z,6.9
2023-03-26T05:22:01.547Z,6.9
2023-03-26T05:23:01.145Z,6.9
2023-03-26T05:24:01.731Z,7
2023-03-26T05:25:01.322Z,7.1
2023-03-26T05:26:01.938Z,7.1
2023-03-26T05:27:01.537Z,7.1
2023-03-26T05:28:01.125Z,7.2
2023-03-26T05:29:01.731Z,7.2
2023-03-26T05:30:01.318Z,7.2
2023-03-26T05:31:01.914Z,7.2
2023-03-26T05:32:01.504Z,7.3
2023-03-26T05:33:01.194Z,7.3
2023-03-26T05:34:01.797Z,7.3
2023-03-26T05:35:01.333Z,7.3
2023-03-26T05:36:01.951Z,7.4
2023-03-26T05:37:01.620Z,7.4
2023-03-26T05:38:01.165Z,7.4
2023-03-26T05:39:01.762Z,7.3
2023-03-26T05:40:01.369Z,7.4
2023-03-26T05:41:01.925Z,7.4
2023-03-26T05:42:01.541Z,7.5
2023-03-26T05:43:01.130Z,7.5
2023-03-26T05:44:01.734Z,7.6
2023-03-26T05:45:01.376Z,7.6
2023-03-26T05:46:01.948Z,7.7
2023-03-26T05:47:01.566Z,7.6
2023-03-26T05:48:01.234Z,7.7
2023-03-26T05:49:01.734Z,7.6
2023-03-26T05:50:01.372Z,7.6
2023-03-26T05:51:01.893Z,7.7
2023-03-26T05:52:01.481Z,7.7
2023-03-26T05:53:01.077Z,7.7
2023-03-26T05:54:01.670Z,7.8
2023-03-26T05:55:01.267Z,7.8
2023-03-26T05:56:01.840Z,7.8
2023-03-26T05:57:01.504Z,7.8
2023-03-26T05:58:01.051Z,7.8
2023-03-26T05:59:01.647Z,7.8
2023-03-26T06:00:01.237Z,7.8
2023-03-26T06:01:01.809Z,7.7
2023-03-26T06:02:01.405Z,7.8
2023-03-26T06:03:01.096Z,7.7
2023-03-26T06:04:01.633Z,7.7
2023-03-26T06:05:01.255Z,7.7
2023-03-26T06:06:01.802Z,7.8
2023-03-26T06:07:01.408Z,7.8
2023-03-26T06:08:00.980Z,7.7
2023-03-26T06:09:02.906Z,7.8
2023-03-26T06:10:01.677Z,7.7
2023-03-26T06:11:01.775Z,7.7
2023-03-26T06:12:01.365Z,7.7
2023-03-26T06:13:01.951Z,7.7
2023-03-26T06:14:01.575Z,7.7
2023-03-26T06:15:01.192Z,7.7
2023-03-26T06:16:01.808Z,7.7
2023-03-26T06:17:01.394Z,7.7
2023-03-26T06:18:02.015Z,7.7
2023-03-26T06:19:01.637Z,7.7
2023-03-26T06:20:01.194Z,7.7
2023-03-26T06:21:01.794Z,7.8
2023-03-26T06:22:01.386Z,7.8
2023-03-26T06:23:01.968Z,7.8
2023-03-26T06:24:01.560Z,7.8
2023-03-26T06:25:01.159Z,7.8
2023-03-26T06:26:01.772Z,7.9
2023-03-26T06:27:01.368Z,7.9
2023-03-26T06:28:01.949Z,7.9
2023-03-26T06:29:01.540Z,8
2023-03-26T06:30:01.170Z,8
2023-03-26T06:31:01.740Z,8
2023-03-26T06:32:09.335Z,8.1
2023-03-26T06:33:01.949Z,8.1
2023-03-26T06:34:01.640Z,8.1
2023-03-26T06:35:01.179Z,8.2
2023-03-26T06:36:01.802Z,8.2
2023-03-26T06:37:01.442Z,8.2
2023-03-26T06:38:01.000Z,8.2
2023-03-26T06:39:01.584Z,8.2
2023-03-26T06:40:01.124Z,8.2
2023-03-26T06:41:01.714Z,8.2
2023-03-26T06:42:01.338Z,8.2
2023-03-26T06:43:07.305Z,8.1
2023-03-26T06:44:01.450Z,8.1
2023-03-26T06:45:01.047Z,8.1
2023-03-26T06:46:01.657Z,8.1
2023-03-26T06:47:01.292Z,8.1
2023-03-26T06:48:01.862Z,8.1
2023-03-26T06:49:01.477Z,8.1
2023-03-26T06:50:01.041Z,8.1
2023-03-26T06:51:01.682Z,8.1
2023-03-26T06:52:01.298Z,8.2
2023-03-26T06:53:01.859Z,8
2023-03-26T06:54:01.451Z,8
2023-03-26T06:55:01.039Z,8.1
2023-03-26T06:56:01.624Z,8.1
2023-03-26T06:57:01.249Z,8.1
2023-03-26T06:58:01.808Z,8.2
2023-03-26T06:59:01.407Z,8.1
2023-03-26T07:00:00.983Z,8.1
2023-03-26T07:01:01.570Z,8
2023-03-26T07:02:01.238Z,8
2023-03-26T07:03:01.805Z,8
2023-03-26T07:04:01.435Z,8.1
2023-03-26T07:05:01.015Z,8.1
2023-03-26T07:06:01.569Z,8.1
2023-03-26T07:07:01.158Z,8.1
2023-03-26T07:08:01.741Z,8.2
2023-03-26T07:09:01.331Z,8.2
2023-03-26T07:10:01.924Z,8.2
2023-03-26T07:11:01.529Z,8.2
2023-03-26T07:12:01.144Z,8.2
2023-03-26T07:13:01.692Z,8.3
2023-03-26T07:14:01.290Z,8.2
2023-03-26T07:15:01.858Z,8.3
2023-03-26T07:16:01.544Z,8.3
2023-03-26T07:17:01.204Z,8.3
2023-03-26T07:18:01.675Z,8.3
2023-03-26T07:19:01.273Z,8.3
2023-03-26T07:20:01.850Z,8.3
2023-03-26T07:21:01.506Z,8.4
2023-03-26T07:22:01.052Z,8.4
2023-03-26T07:23:01.779Z,8.3
2023-03-26T07:24:01.267Z,8.4
2023-03-26T07:25:01.847Z,8.4
2023-03-26T07:26:01.435Z,8.4
2023-03-26T07:27:01.030Z,8.4
2023-03-26T07:28:01.595Z,8.5
2023-03-26T07:29:03.953Z,8.4
2023-03-26T07:30:01.745Z,8.5
2023-03-26T07:31:01.336Z,8.5
2023-03-26T07:32:01.991Z,8.4
2023-03-26T07:33:01.612Z,8.4
2023-03-26T07:34:01.174Z,8.5
2023-03-26T07:35:01.725Z,8.5
2023-03-26T07:36:01.318Z,8.4
2023-03-26T07:37:01.919Z,8.3
2023-03-26T07:38:01.542Z,8.4
2023-03-26T07:39:01.139Z,8.4
2023-03-26T07:40:01.720Z,8.4
2023-03-26T07:41:01.314Z,8.4
2023-03-26T07:42:01.884Z,8.4
2023-03-26T07:43:01.499Z,8.5
2023-03-26T07:44:01.062Z,8.5
2023-03-26T07:45:01.648Z,8.5
2023-03-26T07:46:01.281Z,8.6
2023-03-26T07:47:01.829Z,8.6
2023-03-26T07:48:01.448Z,8.6
2023-03-26T07:49:01.009Z,8.6
2023-03-26T07:50:01.644Z,8.7
2023-03-26T07:51:01.239Z,8.7
2023-03-26T07:52:01.870Z,8.7
2023-03-26T07:53:01.479Z,8.7
2023-03-26T07:54:01.068Z,8.6
2023-03-26T07:55:01.638Z,8.7
2023-03-26T07:56:01.239Z,8.7
2023-03-26T07:57:02.089Z,8.7
2023-03-26T07:58:01.494Z,8.7
2023-03-26T07:59:01.057Z,8.7
2023-03-26T08:00:01.634Z,8.6
2023-03-26T08:01:01.234Z,8.5
2023-03-26T08:02:01.815Z,8.5
2023-03-26T08:03:01.633Z,8.5
2023-03-26T08:04:01.034Z,8.5
2023-03-26T08:05:01.557Z,8.5
2023-03-26T08:06:01.216Z,8.5
2023-03-26T08:07:01.755Z,8.5
2023-03-26T08:08:01.369Z,8.5
2023-03-26T08:09:01.955Z,8.5
2023-03-26T08:10:01.547Z,8.6
2023-03-26T08:11:01.158Z,8.7
2023-03-26T08:12:01.722Z,8.5
2023-03-26T08:13:01.312Z,8.5
2023-03-26T08:14:01.916Z,8.4
2023-03-26T08:15:01.503Z,8.5
2023-03-26T08:16:01.161Z,8.6
2023-03-26T08:17:01.705Z,8.6
2023-03-26T08:18:01.325Z,8.6
2023-03-26T08:19:01.883Z,8.5
2023-03-26T08:20:01.501Z,8.6
2023-03-26T08:21:01.058Z,8.6
2023-03-26T08:22:01.668Z,8.6
2023-03-26T08:23:01.258Z,8.6
2023-03-26T08:24:01.840Z,8.5
2023-03-26T08:25:01.451Z,8.6
2023-03-26T08:26:01.008Z,8.7
2023-03-26T08:27:01.606Z,8.7
2023-03-26T08:28:01.203Z,8.7
2023-03-26T08:29:01.774Z,8.7
2023-03-26T08:30:01.369Z,8.7
2023-03-26T08:31:02.004Z,8.7
2023-03-26T08:32:01.642Z,8.7
2023-03-26T08:33:01.228Z,8.7
2023-03-26T08:34:01.768Z,8.8
2023-03-26T08:35:01.364Z,8.8
2023-03-26T08:36:01.959Z,8.8
2023-03-26T08:37:01.603Z,8.7
2023-03-26T08:38:01.220Z,8.7
2023-03-26T08:39:01.756Z,8.7
2023-03-26T08:40:01.359Z,8.8
2023-03-26T08:41:01.931Z,8.7
2023-03-26T08:42:01.529Z,8.7
2023-03-26T08:43:01.157Z,8.7
2023-03-26T08:44:01.699Z,8.7
2023-03-26T08:45:01.293Z,8.7
2023-03-26T08:46:01.875Z,8.6
2023-03-26T08:47:01.465Z,8.6
2023-03-26T08:48:01.121Z,8.5
2023-03-26T08:49:01.635Z,8.5
2023-03-26T08:50:01.255Z,8.5
2023-03-26T08:51:01.835Z,8.6
2023-03-26T08:52:01.495Z,8.6
2023-03-26T08:53:01.047Z,8.6
2023-03-26T08:54:01.632Z,8.5
2023-03-26T08:55:01.252Z,8.5
2023-03-26T08:56:01.821Z,8.6
2023-03-26T08:57:01.443Z,8.6
2023-03-26T08:58:01.023Z,8.6
2023-03-26T08:59:01.562Z,8.7
2023-03-26T09:00:02.734Z,8.6
2023-03-26T09:01:01.591Z,8.7
2023-03-26T09:02:01.207Z,8.7
2023-03-26T09:03:01.812Z,8.7
2023-03-26T09:04:01.523Z,8.7
2023-03-26T09:05:01.014Z,8.7
2023-03-26T09:06:01.597Z,8.7
2023-03-26T09:07:01.195Z,8.7
2023-03-26T09:08:01.771Z,8.6
2023-03-26T09:09:01.413Z,8.6
2023-03-26T09:10:01.988Z,8.7
2023-03-26T09:11:01.578Z,8.7
2023-03-26T09:12:01.179Z,8.8
2023-03-26T09:13:01.764Z,8.6
2023-03-26T09:14:01.382Z,8.7
2023-03-26T09:15:01.952Z,8.6
2023-03-26T09:16:01.620Z,8.6
2023-03-26T09:17:01.197Z,8.6
2023-03-26T09:18:01.795Z,8.6
2023-03-26T09:19:01.423Z,8.6
2023-03-26T09:20:01.021Z,8.6
2023-03-26T09:21:01.604Z,8.6
2023-03-26T09:22:01.212Z,8.6
2023-03-26T09:23:01.780Z,8.7
2023-03-26T09:24:01.374Z,8.6
2023-03-26T09:25:01.948Z,8.7
2023-03-26T09:26:01.593Z,8.7
2023-03-26T09:27:01.188Z,8.7
2023-03-26T09:28:01.757Z,8.7
2023-03-26T09:29:01.345Z,8.7
2023-03-26T09:30:01.914Z,8.7
2023-03-26T09:31:01.549Z,8.7
2023-03-26T09:32:01.137Z,8.8
2023-03-26T09:33:01.744Z,8.7
2023-03-26T09:34:01.382Z,8.7
2023-03-26T09:35:01.972Z,8.7
2023-03-26T09:36:01.620Z,8.8
2023-03-26T09:37:01.204Z,8.7
2023-03-26T09:38:01.804Z,8.6
2023-03-26T09:39:01.402Z,8.7
2023-03-26T09:40:00.993Z,8.8
2023-03-26T09:41:01.596Z,8.7
2023-03-26T09:42:01.222Z,8.7
2023-03-26T09:43:01.783Z,8.8
2023-03-26T09:44:01.373Z,8.7
2023-03-26T09:45:01.975Z,8.8
2023-03-26T09:46:01.633Z,8.8
2023-03-26T09:47:01.205Z,8.8
2023-03-26T09:48:01.821Z,8.8
2023-03-26T09:49:01.432Z,8.8
2023-03-26T09:50:01.006Z,9
2023-03-26T09:51:01.608Z,9
2023-03-26T09:52:01.202Z,9.1
2023-03-26T09:53:01.834Z,8.9
2023-03-26T09:54:01.440Z,8.8
2023-03-26T09:55:01.015Z,8.8
2023-03-26T09:56:01.592Z,8.9
2023-03-26T09:57:01.204Z,8.9
2023-03-26T09:58:01.891Z,8.9
2023-03-26T09:59:01.440Z,8.8
2023-03-26T10:00:01.037Z,8.8
2023-03-26T10:01:01.604Z,8.8
2023-03-26T10:02:01.217Z,8.8
2023-03-26T10:03:01.786Z,8.8
2023-03-26T10:04:01.428Z,8.9
2023-03-26T10:05:00.998Z,8.7
2023-03-26T10:06:01.579Z,8.8
2023-03-26T10:07:01.164Z,8.8
2023-03-26T10:08:01.751Z,8.8
2023-03-26T10:09:01.338Z,8.8
2023-03-26T10:10:01.915Z,8.8
2023-03-26T10:11:01.527Z,8.7
2023-03-26T10:12:01.122Z,8.8
2023-03-26T10:13:11.860Z,8.8
2023-03-26T10:14:01.289Z,8.8
2023-03-26T10:15:01.929Z,8.8
2023-03-26T10:16:01.556Z,8.8
2023-03-26T10:17:01.179Z,8.8
2023-03-26T10:18:01.763Z,8.9
2023-03-26T10:19:01.388Z,9
2023-03-26T10:20:00.977Z,9.1
2023-03-26T10:21:01.583Z,9.1
2023-03-26T10:22:01.178Z,9.2
2023-03-26T10:23:01.762Z,9.2
2023-03-26T10:24:01.362Z,9.3
2023-03-26T10:25:01.935Z,9.3
2023-03-26T10:26:01.554Z,9.3
2023-03-26T10:27:09.514Z,9.2
2023-03-26T10:28:01.715Z,9.1
2023-03-26T10:29:01.308Z,9.2
2023-03-26T10:30:01.919Z,9.2
2023-03-26T10:31:01.607Z,9.2
2023-03-26T10:32:01.155Z,9.3
2023-03-26T10:33:01.784Z,9.3
2023-03-26T10:34:01.386Z,9.3
2023-03-26T10:35:01.960Z,9.4
2023-03-26T10:36:01.562Z,9.4
2023-03-26T10:37:01.155Z,9.3
2023-03-26T10:38:01.747Z,9.6
2023-03-26T10:39:01.330Z,9.6
2023-03-26T10:40:01.959Z,9.7
2023-03-26T10:41:01.564Z,9.7
2023-03-26T10:42:01.150Z,9.8
2023-03-26T10:43:01.740Z,9.7
2023-03-26T10:44:08.311Z,9.6
2023-03-26T10:45:01.891Z,9.5
2023-03-26T10:46:01.564Z,9.5
2023-03-26T10:47:01.152Z,9.4
2023-03-26T10:48:01.773Z,9.3
2023-03-26T10:49:01.385Z,9.3
2023-03-26T10:50:01.958Z,9.4
2023-03-26T10:51:01.563Z,9.6
2023-03-26T10:52:01.157Z,9.7
2023-03-26T10:53:01.742Z,9.7
2023-03-26T10:54:01.388Z,9.6
2023-03-26T10:55:01.916Z,9.5
2023-03-26T10:56:01.524Z,9.5
2023-03-26T10:57:01.149Z,9.4
2023-03-26T10:58:01.707Z,9.4
2023-03-26T10:59:01.312Z,9.5
2023-03-26T11:00:01.909Z,9.5
2023-03-26T11:01:02.600Z,9.7
2023-03-26T11:02:01.096Z,9.8
2023-03-26T11:03:01.718Z,9.7
2023-03-26T11:04:01.329Z,9.8
2023-03-26T11:05:01.912Z,9.8
2023-03-26T11:06:01.521Z,9.7
2023-03-26T11:07:01.401Z,9.7
2023-03-26T11:08:01.404Z,9.5
2023-03-26T11:09:01.002Z,9.5
2023-03-26T11:10:01.585Z,9.6
2023-03-26T11:11:01.178Z,9.6
2023-03-26T11:12:01.774Z,9.6
2023-03-26T11:13:01.982Z,9.6
2023-03-26T11:14:01.159Z,9.7
2023-03-26T11:15:01.534Z,9.7
2023-03-26T11:16:01.151Z,9.6
2023-03-26T11:17:01.742Z,9.6
2023-03-26T11:18:01.480Z,9.6
2023-03-26T11:19:03.296Z,9.8
2023-03-26T11:20:01.463Z,9.7
2023-03-26T11:21:18.439Z,9.6
2023-03-26T11:22:01.619Z,9.6
2023-03-26T11:23:01.210Z,9.5
2023-03-26T11:24:04.961Z,9.4
2023-03-26T11:25:01.824Z,9.5
2023-03-26T11:26:01.372Z,9.5
2023-03-26T11:27:15.634Z,9.5
2023-03-26T11:28:01.179Z,9.3
2023-03-26T11:29:03.898Z,9.2
2023-03-26T11:30:01.338Z,9.1
2023-03-26T11:31:01.978Z,9.2
2023-03-26T11:32:01.635Z,9.1
2023-03-26T11:33:01.230Z,9.1
2023-03-26T11:34:01.823Z,9
2023-03-26T11:35:01.429Z,8.9
2023-03-26T11:36:01.033Z,8.8
2023-03-26T11:37:01.595Z,8.8
2023-03-26T11:38:01.183Z,8.8
2023-03-26T11:39:01.770Z,8.9
2023-03-26T11:40:01.363Z,8.8
2023-03-26T11:41:01.961Z,8.9
2023-03-26T11:42:01.560Z,8.8
2023-03-26T11:43:01.186Z,9
2023-03-26T11:44:01.734Z,8.9
2023-03-26T11:45:01.335Z,9
2023-03-26T11:46:01.949Z,9
2023-03-26T11:47:01.573Z,9
2023-03-26T11:48:01.210Z,8.8
2023-03-26T11:49:01.745Z,8.8
2023-03-26T11:50:01.363Z,8.9
2023-03-26T11:51:01.926Z,8.8
2023-03-26T11:52:01.550Z,8.8
2023-03-26T11:53:01.147Z,8.8
2023-03-26T11:54:01.775Z,8.8
2023-03-26T11:55:01.371Z,8.8
2023-03-26T11:56:01.940Z,9
2023-03-26T11:57:04.363Z,9.1
2023-03-26T11:58:01.096Z,9.1
2023-03-26T11:59:01.701Z,9
2023-03-26T12:00:01.320Z,9.1
2023-03-26T12:01:01.868Z,9
2023-03-26T12:02:01.510Z,9.1
2023-03-26T12:03:01.063Z,9.2
2023-03-26T12:04:01.638Z,9.3
2023-03-26T12:05:01.255Z,9.3
2023-03-26T12:06:01.873Z,9.2
2023-03-26T12:07:01.485Z,9.2
2023-03-26T12:08:01.058Z,9.1
2023-03-26T12:09:01.627Z,9.2
2023-03-26T12:10:17.659Z,9.3
2023-03-26T12:11:01.777Z,9.2
2023-03-26T12:12:01.380Z,9.2
2023-03-26T12:13:01.958Z,8.9
2023-03-26T12:14:01.581Z,8.7
2023-03-26T12:15:01.180Z,8.5
2023-03-26T12:16:01.794Z,8.5
2023-03-26T12:17:01.562Z,8.5
2023-03-26T12:18:01.980Z,8.5
2023-03-26T12:19:01.635Z,8.5
2023-03-26T12:20:01.217Z,8.6
2023-03-26T12:21:01.814Z,8.6
2023-03-26T12:22:01.457Z,8.6
2023-03-26T12:23:01.024Z,8.6
2023-03-26T12:24:01.626Z,8.5
2023-03-26T12:25:01.233Z,8.5
2023-03-26T12:26:01.809Z,8.5
2023-03-26T12:27:01.405Z,8.5
2023-03-26T12:28:01.995Z,8.5
2023-03-26T12:29:01.584Z,8.7
2023-03-26T12:30:01.182Z,8.8
2023-03-26T12:31:01.773Z,8.7
2023-03-26T12:32:01.426Z,8.8
2023-03-26T12:33:01.968Z,8.9
2023-03-26T12:34:01.579Z,9
2023-03-26T12:35:01.167Z,9
2023-03-26T12:36:01.778Z,9.2
2023-03-26T12:37:01.403Z,9.3
2023-03-26T12:38:01.977Z,9.4
2023-03-26T12:39:16.444Z,9.3
2023-03-26T12:40:08.271Z,9.3
2023-03-26T12:41:01.672Z,9.4
2023-03-26T12:42:26.260Z,9.6
2023-03-26T12:44:45.597Z,9.6
2023-03-26T12:44:52.140Z,9.6
2023-03-26T12:45:01.421Z,9.7
2023-03-26T12:46:03.666Z,9.7
2023-03-26T12:47:55.929Z,9.7
2023-03-26T12:48:03.637Z,9.8
2023-03-26T12:49:01.532Z,9.8
2023-03-26T12:50:01.248Z,9.8
2023-03-26T12:51:01.811Z,9.8
2023-03-26T12:52:01.414Z,10
2023-03-26T12:53:00.996Z,10
2023-03-26T12:54:01.607Z,9.9
2023-03-26T12:55:01.248Z,10.2
2023-03-26T12:56:01.808Z,10.1
2023-03-26T12:57:11.495Z,10.2
2023-03-26T12:58:01.967Z,10.3
2023-03-26T12:59:01.509Z,10.1
2023-03-26T13:00:01.283Z,10
2023-03-26T13:01:01.800Z,9.9
2023-03-26T13:02:01.498Z,9.8
2023-03-26T13:03:01.055Z,9.8
2023-03-26T13:04:01.597Z,9.9
2023-03-26T13:05:05.968Z,9.7
2023-03-26T13:06:01.738Z,9.7
2023-03-26T13:07:02.552Z,9.7
2023-03-26T13:08:01.242Z,9.8
2023-03-26T13:09:01.503Z,9.9
2023-03-26T13:10:01.165Z,10.1
2023-03-26T13:11:01.678Z,10
2023-03-26T13:12:01.286Z,10
2023-03-26T13:13:01.851Z,10
2023-03-26T13:14:01.461Z,10.1
2023-03-26T13:15:01.025Z,10
2023-03-26T13:16:01.610Z,10
2023-03-26T13:17:01.213Z,10.2
2023-03-26T13:18:01.806Z,10.4
2023-03-26T13:19:01.431Z,10.3
2023-03-26T13:20:01.102Z,10.3
2023-03-26T13:21:01.572Z,10.3
2023-03-26T13:22:01.162Z,10.2
2023-03-26T13:23:01.735Z,10.3
2023-03-26T13:24:01.355Z,10.1
2023-03-26T13:25:01.914Z,10.2
2023-03-26T13:26:01.530Z,10.2
2023-03-26T13:27:01.142Z,10.3
2023-03-26T13:28:01.706Z,10.4
2023-03-26T13:29:01.335Z,10.4
2023-03-26T13:30:01.898Z,10.5
2023-03-26T13:31:01.548Z,10.4
2023-03-26T13:32:01.092Z,10.6
2023-03-26T13:33:01.688Z,10.7
2023-03-26T13:34:01.331Z,10.6
2023-03-26T13:35:01.895Z,10.5
2023-03-26T13:36:14.677Z,10.5
2023-03-26T13:37:01.111Z,10.6
2023-03-26T13:38:01.658Z,10.4
2023-03-26T13:39:01.252Z,10.2
2023-03-26T13:40:01.850Z,10.1
2023-03-26T13:41:01.444Z,9.9
2023-03-26T13:42:01.055Z,9.9
2023-03-26T13:43:01.620Z,9.9
2023-03-26T13:44:01.524Z,9.8
2023-03-26T13:45:04.476Z,9.7
2023-03-26T13:46:01.675Z,9.7
2023-03-26T13:47:01.054Z,9.7
2023-03-26T13:48:01.799Z,9.6
2023-03-26T13:49:01.291Z,9.7
2023-03-26T13:50:01.941Z,9.7
2023-03-26T13:51:01.530Z,9.6
2023-03-26T13:52:01.131Z,9.6